Monday, January 22, 2018, 9:06 AM EST
Back to Local

KFME, Fort Meade / Tipton

Location: Laurel, MD, United States Lat: 39.083
Local Time: 9:06 AM EST (14:06 GMT) Lon: -76.767
Time Zone: US/Eastern Elev: 150 ft

Show me the last for .
Show Coded

Time T Td Feel RH Dir Speed Gust Alt SLP Vis Weather Sky Remarks
2018-01-22 08:36 45 37 - 75 - Calm - 30.16 - 10 OVC110 None
2018-01-22 08:15 45 37 - 75 - Calm - 30.16 - 10 OVC110 None
2018-01-22 07:57 43 37 - 81 - Calm - 30.16 - 10 OVC110 None
2018-01-22 07:36 43 37 - 81 - Calm - 30.16 - 10 OVC110 None
2018-01-22 07:15 43 37 - 81 - Calm - 30.15 - 10 OVC110 None
2018-01-22 06:57 43 37 - 81 - Calm - 30.15 - 10 SCT070 OVC110 None
2018-01-22 06:36 43 37 - 81 - Calm - 30.15 - 10 OVC110 None
2018-01-22 06:15 43 37 - 81 - Calm - 30.15 - 10 OVC110 None
2018-01-22 05:57 43 37 - 81 - Calm - 30.15 - 10 OVC110 None
2018-01-22 05:36 43 37 - 81 - Calm - 30.14 - 10 OVC110 None
2018-01-22 05:15 43 37 - 81 - Calm - 30.14 - 10 OVC110 None
2018-01-22 04:57 43 37 - 81 - Calm - 30.13 - 10 OVC110 None
2018-01-22 04:36 41 36 - 80 - Calm - 30.13 - 10 SCT060 OVC110 None
2018-01-22 04:15 41 36 - 80 - Calm - 30.14 - 10 SCT060 OVC110 None
2018-01-22 03:57 41 36 - 80 - Calm - 30.14 - 10 BKN060 OVC100 None
2018-01-22 03:36 41 36 - 80 - Calm - 30.14 - 10 BKN060 OVC100 None
2018-01-22 03:15 41 36 - 80 - Calm - 30.15 - 10 BKN070 OVC100 None
2018-01-22 02:57 39 36 - 86 - Calm - 30.15 - 10 SCT070 OVC100 None
2018-01-22 02:36 39 36 - 86 - Calm - 30.15 - 10 OVC100 None
2018-01-22 02:15 41 36 - 80 - Calm - 30.15 - 10 SCT060 OVC100 None
2018-01-22 01:57 41 36 - 80 - Calm - 30.15 - 10 SCT060 SCT070 OVC100 None
2018-01-22 01:36 41 36 - 80 - Calm - 30.15 - 10 BKN085 BKN100 None
2018-01-22 01:15 39 36 - 86 - Calm - 30.15 - 10 SCT060 OVC085 None
2018-01-22 00:57 39 34 - 80 - Calm - 30.15 - 10 BKN060 BKN075 OVC100 None
2018-01-22 00:36 39 34 - 80 - Calm - 30.15 - 10 SCT075 OVC100 None
2018-01-22 00:15 39 34 - 80 - Calm - 30.16 - 10 SCT075 OVC100 None
2018-01-21 23:57 39 34 - 80 - Calm - 30.16 - 10 BKN100 None
2018-01-21 23:36 39 34 - 80 - Calm - 30.16 - 10 BKN090 None
2018-01-21 23:15 39 34 - 80 - Calm - 30.16 - 10 OVC090 None
2018-01-21 22:57 37 34 - 86 - Calm - 30.16 - 10 OVC090 None
2018-01-21 22:36 37 34 - 86 - Calm - 30.16 - 10 OVC090 None
2018-01-21 22:15 37 34 - 86 - Calm - 30.17 - 10 BKN090 None
2018-01-21 21:57 39 34 - 80 - Calm - 30.17 - 10 BKN090 None
2018-01-21 21:36 37 34 - 86 - Calm - 30.17 - 10 OVC080 None
2018-01-21 21:15 37 34 - 86 - Calm - 30.17 - 10 OVC080 None
2018-01-21 20:57 37 34 - 86 - Calm - 30.17 - 10 OVC080 None
2018-01-21 20:36 37 34 - 86 - Calm - 30.17 - 10 SCT070 SCT080 None
2018-01-21 20:15 39 34 - 80 - Calm - 30.17 - 10 SCT085 None
2018-01-21 19:57 41 34 - 75 - Calm - 30.17 - 10 SCT085 None
2018-01-21 19:36 41 34 - 75 - Calm - 30.17 - 10 SCT070 None
2018-01-21 19:15 45 36 - 70 - Calm - 30.17 - 10 SCT070 None
2018-01-21 18:57 43 36 - 75 - Calm - 30.17 - 10 CLR None
2018-01-21 18:36 46 36 - 65 - Calm - 30.17 - 10 SCT080 None
2018-01-21 18:15 50 36 - 57 - Calm - 30.17 - 10 OVC080 None
2018-01-21 17:57 50 36 49 57 120° 3 - 30.17 - 10 OVC080 None
2018-01-21 17:36 50 36 48 57 90° 5 - 30.17 - 10 SCT055 OVC080 None
2018-01-21 17:15 52 37 - 57 120° 3 - 30.17 - 10 OVC055 None
2018-01-21 16:57 52 37 - 57 90° 5 - 30.17 - 10 OVC055 None
2018-01-21 16:36 54 37 - 54 110° 6 - 30.17 - 10 BKN055 OVC080 None
2018-01-21 16:15 55 37 - 50 80° 6 - 30.17 - 10 SCT050 OVC080 None
2018-01-21 15:57 55 37 - 50 120° 5 - 30.17 - 10 SCT050 OVC080 None
2018-01-21 15:36 55 37 - 50 120° 7 - 30.16 - 10 SCT050 OVC080 None
2018-01-21 15:15 57 37 - 47 120° 6 - 30.16 - 10 SCT050 OVC080 None
2018-01-21 14:57 57 37 - 47 140° 7 - 30.16 - 10 BKN080 None
2018-01-21 14:36 57 37 - 47 - Calm - 30.16 - 10 SCT080 None
2018-01-21 14:15 57 37 - 47 160° 8 - 30.16 - 10 SCT049 OVC080 None
2018-01-21 13:57 57 37 - 47 180° 6 - 30.17 - 10 OVC049 None
2018-01-21 13:36 55 37 - 50 160° 5 - 30.17 - 10 OVC049 None
2018-01-21 13:15 54 37 - 54 130° 6 - 30.18 - 10 BKN047 None
2018-01-21 12:57 54 37 - 54 140° 7 - 30.19 - 10 SCT049 SCT080 None
2018-01-21 12:36 52 36 - 53 140° 6 - 30.20 - 10 OVC047 None
2018-01-21 12:15 50 36 49 57 130° 3 - 30.21 - 10 OVC047 None
2018-01-21 11:57 50 36 - 57 - Calm - 30.23 - 10 OVC047 None
2018-01-21 11:36 48 36 - 61 - Calm - 30.24 - 10 OVC047 None
2018-01-21 11:15 46 34 - 61 - Calm - 30.24 - 10 OVC047 None
2018-01-21 10:57 46 34 - 61 - Calm - 30.24 - 10 OVC047 None
2018-01-21 10:36 45 34 - 65 - Calm - 30.25 - 10 OVC047 None
2018-01-21 10:15 43 34 - 70 - Calm - 30.25 - 10 OVC045 None
2018-01-21 09:57 41 34 - 75 - Calm - 30.25 - 10 OVC045 None
2018-01-21 09:36 37 34 - 86 - Calm - 30.24 - 10 SCT038 OVC045 None
2018-01-21 09:15 37 34 - 86 - Calm - 30.24 - 10 BKN040 OVC049 None

Support USWX by starting your Amazon purchase here.